createdAt,value
2023-05-08T00:00:06.547Z,101618.66
2023-05-08T00:02:34.901Z,101616.69
2023-05-08T00:05:03.276Z,101615.56
2023-05-08T00:07:31.626Z,101613.28
2023-05-08T00:10:01.266Z,101609.66
2023-05-08T00:12:29.552Z,101611.88
2023-05-08T00:14:58.002Z,101608.28
2023-05-08T00:17:26.414Z,101607.97
2023-05-08T00:19:54.659Z,101610.50
2023-05-08T00:22:23.106Z,101611.63
2023-05-08T00:24:51.383Z,101613.28
2023-05-08T00:27:20.983Z,101612.75
2023-05-08T00:29:50.332Z,101615.53
2023-05-08T00:32:18.748Z,101607.44
2023-05-08T00:34:47.106Z,101619.50
2023-05-08T00:37:15.381Z,101616.69
2023-05-08T00:39:43.649Z,101610.47
2023-05-08T00:42:11.895Z,101612.75
2023-05-08T00:44:41.547Z,101618.38
2023-05-08T00:47:10.386Z,101608.28
2023-05-08T00:49:39.404Z,101615.00
2023-05-08T00:52:09.058Z,101616.34
2023-05-08T00:54:38.790Z,101618.66
2023-05-08T00:57:08.712Z,101609.94
2023-05-08T00:59:37.697Z,101615.09
2023-05-08T01:02:07.764Z,101612.66
2023-05-08T01:04:37.896Z,101610.91
2023-05-08T01:07:06.289Z,101610.44
2023-05-08T01:09:35.586Z,101604.34
2023-05-08T01:12:16.735Z,101616.69
2023-05-08T01:15:01.805Z,101615.56
2023-05-08T01:17:46.274Z,101615.53
2023-05-08T01:20:33.233Z,101606.88
2023-05-08T01:24:06.527Z,101616.41
2023-05-08T01:27:17.930Z,101621.44
2023-05-08T01:30:34.751Z,101621.16
2023-05-08T01:33:14.179Z,101622.00
2023-05-08T01:35:48.717Z,101621.16
2023-05-08T01:38:26.266Z,101624.81
2023-05-08T01:41:02.056Z,101622.56
2023-05-08T01:43:36.666Z,101626.75
2023-05-08T01:46:11.208Z,101619.47
2023-05-08T01:48:50.519Z,101623.53
2023-05-08T01:51:22.927Z,101631.41
2023-05-08T01:53:56.998Z,101624.44
2023-05-08T01:56:30.061Z,101623.91
2023-05-08T02:01:29.605Z,101639.88
2023-05-08T02:04:01.161Z,101629.50
2023-05-08T02:06:31.198Z,101642.97
2023-05-08T02:09:01.799Z,101643.50
2023-05-08T02:11:33.231Z,101642.41
2023-05-08T02:14:02.903Z,101652.50
2023-05-08T02:16:32.664Z,101656.41
2023-05-08T02:19:04.312Z,101651.63
2023-05-08T02:21:34.305Z,101655.28
2023-05-08T02:24:04.233Z,101652.75
2023-05-08T02:26:34.154Z,101656.97
2023-05-08T02:29:04.585Z,101651.38
2023-05-08T02:31:33.436Z,101655.00
2023-05-08T02:34:05.193Z,101666.47
2023-05-08T02:36:34.589Z,101661.97
2023-05-08T02:39:03.978Z,101656.63
2023-05-08T02:41:34.825Z,101655.25
2023-05-08T02:44:04.192Z,101665.38
2023-05-08T02:46:45.221Z,101662.28
2023-05-08T02:49:28.917Z,101658.34
2023-05-08T02:52:05.622Z,101654.69
2023-05-08T02:54:39.985Z,101656.13
2023-05-08T02:57:15.588Z,101658.59
2023-05-08T02:59:47.856Z,101651.09
2023-05-08T03:02:22.378Z,101660.84
2023-05-08T03:04:56.706Z,101644.00
2023-05-08T03:07:28.309Z,101647.91
2023-05-08T03:10:03.473Z,101647.88
2023-05-08T03:12:35.233Z,101655.19
2023-05-08T03:15:10.149Z,101651.25
2023-05-08T03:17:40.678Z,101646.19
2023-05-08T03:20:15.940Z,101644.81
2023-05-08T03:22:46.668Z,101645.09
2023-05-08T03:25:17.994Z,101644.53
2023-05-08T03:27:46.977Z,101640.22
2023-05-08T03:30:17.866Z,101647.53
2023-05-08T03:32:47.278Z,101639.47
2023-05-08T03:35:17.686Z,101636.94
2023-05-08T03:37:46.015Z,101640.31
2023-05-08T03:40:14.988Z,101642.28
2023-05-08T03:42:44.423Z,101642.59
2023-05-08T03:45:15.300Z,101643.81
2023-05-08T03:47:44.701Z,101635.75
2023-05-08T03:50:13.260Z,101644.09
2023-05-08T03:52:43.667Z,101645.13
2023-05-08T03:55:11.901Z,101643.56
2023-05-08T03:57:51.358Z,101654.31
2023-05-08T04:00:29.682Z,101646.84
2023-05-08T04:03:14.936Z,101659.22
2023-05-08T04:05:53.126Z,101658.72
2023-05-08T04:08:29.442Z,101653.13
2023-05-08T04:11:10.976Z,101653.31
2023-05-08T04:13:47.141Z,101659.00
2023-05-08T04:16:21.289Z,101666.59
2023-05-08T04:18:53.169Z,101655.69
2023-05-08T04:21:26.152Z,101659.63
2023-05-08T04:23:59.471Z,101651.25
2023-05-08T04:26:28.115Z,101647.00
2023-05-08T04:28:57.231Z,101647.63
2023-05-08T04:31:27.901Z,101656.03
2023-05-08T04:33:56.643Z,101657.16
2023-05-08T04:36:26.044Z,101647.63
2023-05-08T04:38:55.682Z,101662.75
2023-05-08T04:41:24.027Z,101662.72
2023-05-08T04:43:52.378Z,101661.38
2023-05-08T04:46:20.616Z,101663.03
2023-05-08T04:48:48.857Z,101660.81
2023-05-08T04:51:17.099Z,101664.22
2023-05-08T04:53:45.401Z,101666.31
2023-05-08T04:56:15.047Z,101668.41
2023-05-08T04:58:43.282Z,101673.59
2023-05-08T05:01:11.586Z,101672.72
2023-05-08T05:03:39.875Z,101677.78
2023-05-08T05:06:08.195Z,101676.78
2023-05-08T05:08:36.414Z,101676.13
2023-05-08T05:11:04.738Z,101672.53
2023-05-08T05:13:34.382Z,101681.38
2023-05-08T05:16:03.005Z,101683.56
2023-05-08T05:18:31.230Z,101684.88
2023-05-08T05:21:00.088Z,101679.00
2023-05-08T05:23:28.612Z,101682.97
2023-05-08T05:25:57.137Z,101686.34
2023-05-08T05:28:26.140Z,101686.78
2023-05-08T05:30:55.853Z,101684.81
2023-05-08T05:33:24.403Z,101682.63
2023-05-08T05:35:52.963Z,101690.03
2023-05-08T05:38:21.259Z,101687.50
2023-05-08T05:40:49.513Z,101685.59
2023-05-08T05:43:17.756Z,101689.72
2023-05-08T05:45:46.009Z,101692.81
2023-05-08T05:48:15.709Z,101694.16
2023-05-08T05:50:44.252Z,101696.00
2023-05-08T05:53:13.035Z,101693.69
2023-05-08T05:55:41.299Z,101694.22
2023-05-08T05:58:09.587Z,101689.41
2023-05-08T06:00:37.942Z,101692.78
2023-05-08T06:03:06.245Z,101694.75
2023-05-08T06:05:35.871Z,101689.78
2023-05-08T06:08:05.957Z,101696.78
2023-05-08T06:10:34.338Z,101690.69
2023-05-08T06:13:03.046Z,101701.22
2023-05-08T06:15:31.348Z,101695.88
2023-05-08T06:17:59.616Z,101700.06
2023-05-08T06:20:28.002Z,101703.94
2023-05-08T06:22:57.635Z,101698.16
2023-05-08T06:25:28.195Z,101688.34
2023-05-08T06:27:56.456Z,101698.25
2023-05-08T06:30:25.160Z,101692.00
2023-05-08T06:32:53.482Z,101707.03
2023-05-08T06:35:21.817Z,101708.81
2023-05-08T06:37:50.057Z,101712.06
2023-05-08T06:40:19.835Z,101719.25
2023-05-08T06:42:48.218Z,101733.72
2023-05-08T06:45:16.918Z,101720.47
2023-05-08T06:47:45.257Z,101724.72
2023-05-08T06:50:13.604Z,101730.53
2023-05-08T06:52:42.401Z,101733.28
2023-05-08T06:55:11.240Z,101734.56
2023-05-08T06:57:41.101Z,101732.63
2023-05-08T07:00:11.634Z,101734.78
2023-05-08T07:02:39.940Z,101737.63
2023-05-08T07:05:09.584Z,101738.06
2023-05-08T07:07:37.894Z,101742.06
2023-05-08T07:10:08.005Z,101735.63
2023-05-08T07:12:36.399Z,101734.91
2023-05-08T07:15:17.689Z,101736.78
2023-05-08T07:17:53.342Z,101736.41
2023-05-08T07:20:21.982Z,101736.34
2023-05-08T07:22:50.331Z,101740.63
2023-05-08T07:25:18.779Z,101743.75
2023-05-08T07:27:47.440Z,101744.34
2023-05-08T07:30:17.582Z,101753.41
2023-05-08T07:32:45.919Z,101753.56
2023-05-08T07:35:15.635Z,101751.78
2023-05-08T07:37:44.482Z,101761.22
2023-05-08T07:40:13.121Z,101757.28
2023-05-08T07:42:42.829Z,101752.94
2023-05-08T07:45:14.505Z,101760.03
2023-05-08T07:47:52.807Z,101755.53
2023-05-08T07:50:22.037Z,101754.09
2023-05-08T07:52:50.677Z,101754.22
2023-05-08T07:55:19.848Z,101753.63
2023-05-08T07:57:48.262Z,101753.63
2023-05-08T08:00:18.213Z,101761.41
2023-05-08T08:02:46.971Z,101761.44
2023-05-08T08:05:16.899Z,101760.09
2023-05-08T08:07:45.347Z,101755.25
2023-05-08T08:10:13.695Z,101752.78
2023-05-08T08:12:41.960Z,101755.63
2023-05-08T08:15:11.482Z,101751.09
2023-05-08T08:17:39.944Z,101750.28
2023-05-08T08:20:09.860Z,101756.81
2023-05-08T08:22:40.361Z,101760.19
2023-05-08T08:25:10.273Z,101750.25
2023-05-08T08:27:38.917Z,101745.97
2023-05-08T08:30:17.466Z,101749.41
2023-05-08T08:32:47.150Z,101748.41
2023-05-08T08:35:15.738Z,101742.66
2023-05-08T08:37:46.006Z,101743.47
2023-05-08T08:40:14.632Z,101740.06
2023-05-08T08:42:42.946Z,101739.56
2023-05-08T08:45:12.616Z,101738.75
2023-05-08T08:47:44.432Z,101739.50
2023-05-08T08:50:15.989Z,101745.19
2023-05-08T08:52:55.081Z,101747.78
2023-05-08T08:55:26.580Z,101743.19
2023-05-08T08:58:08.502Z,101741.16
2023-05-08T09:00:38.861Z,101752.94
2023-05-08T09:03:07.888Z,101752.13
2023-05-08T09:05:37.049Z,101749.09
2023-05-08T09:08:08.177Z,101748.53
2023-05-08T09:10:37.256Z,101753.56
2023-05-08T09:13:05.693Z,101746.28
2023-05-08T09:15:34.155Z,101751.09
2023-05-08T09:18:03.536Z,101756.94
2023-05-08T09:20:31.958Z,101753.91
2023-05-08T09:23:03.608Z,101752.41
2023-05-08T09:25:44.752Z,101754.13
2023-05-08T09:28:20.722Z,101755.63
2023-05-08T09:30:54.371Z,101755.34
2023-05-08T09:33:24.520Z,101756.53
2023-05-08T09:35:53.206Z,101759.22
2023-05-08T09:38:35.407Z,101754.47
2023-05-08T09:41:16.184Z,101757.28
2023-05-08T09:43:46.180Z,101755.59
2023-05-08T09:46:26.375Z,101755.28
2023-05-08T09:48:56.924Z,101757.81
2023-05-08T09:51:26.455Z,101760.66
2023-05-08T09:53:56.208Z,101755.28
2023-05-08T09:56:37.039Z,101752.34
2023-05-08T09:59:22.903Z,101746.03
2023-05-08T10:01:51.358Z,101757.72
2023-05-08T10:04:19.854Z,101752.78
2023-05-08T10:06:59.418Z,101749.69
2023-05-08T10:09:35.605Z,101742.59
2023-05-08T10:12:12.515Z,101750.41
2023-05-08T10:14:40.768Z,101752.09
2023-05-08T10:17:11.680Z,101736.66
2023-05-08T10:19:45.329Z,101748.56
2023-05-08T10:22:16.355Z,101747.25
2023-05-08T10:24:48.653Z,101745.06
2023-05-08T10:27:27.925Z,101746.25
2023-05-08T10:30:02.113Z,101751.41
2023-05-08T10:32:32.645Z,101745.25
2023-05-08T10:35:01.889Z,101748.13
2023-05-08T10:37:31.864Z,101744.78
2023-05-08T10:40:01.047Z,101743.75
2023-05-08T10:42:31.205Z,101742.34
2023-05-08T10:45:00.342Z,101740.13
2023-05-08T10:47:47.043Z,101739.28
2023-05-08T10:50:37.556Z,101737.59
2023-05-08T10:53:12.987Z,101732.81
2023-05-08T10:55:46.222Z,101740.72
2023-05-08T10:58:29.863Z,101736.41
2023-05-08T11:01:18.009Z,101738.94
2023-05-08T11:03:55.306Z,101728.03
2023-05-08T11:06:46.580Z,101726.97
2023-05-08T11:09:29.475Z,101729.84
2023-05-08T11:12:10.068Z,101724.59
2023-05-08T11:14:43.703Z,101725.84
2023-05-08T11:17:12.600Z,101719.34
2023-05-08T11:20:00.725Z,101723.50
2023-05-08T11:22:30.822Z,101722.75
2023-05-08T11:25:05.477Z,101714.28
2023-05-08T11:27:42.758Z,101718.22
2023-05-08T11:30:36.009Z,101711.78
2023-05-08T11:33:30.624Z,101714.59
2023-05-08T11:36:01.804Z,101715.94
2023-05-08T11:38:34.251Z,101710.41
2023-05-08T11:41:07.952Z,101706.91
2023-05-08T11:44:20.576Z,101704.66
2023-05-08T11:46:55.865Z,101706.13
2023-05-08T11:49:29.119Z,101702.78
2023-05-08T11:52:00.717Z,101705.00
2023-05-08T11:54:32.631Z,101700.56
2023-05-08T11:57:01.853Z,101696.22
2023-05-08T11:59:30.230Z,101689.31
2023-05-08T12:02:07.697Z,101696.91
2023-05-08T12:04:46.571Z,101695.19
2023-05-08T12:07:16.121Z,101694.22
2023-05-08T12:09:44.435Z,101692.72
2023-05-08T12:12:12.742Z,101696.41
2023-05-08T12:14:40.984Z,101693.72
2023-05-08T12:17:11.790Z,101695.94
2023-05-08T12:19:40.224Z,101694.53
2023-05-08T12:22:10.481Z,101695.00
2023-05-08T12:24:40.041Z,101685.59
2023-05-08T12:27:08.565Z,101688.69
2023-05-08T12:29:38.651Z,101689.53
2023-05-08T12:32:07.200Z,101684.78
2023-05-08T12:34:37.115Z,101691.59
2023-05-08T12:37:06.143Z,101683.84
2023-05-08T12:39:38.603Z,101683.25
2023-05-08T12:42:07.088Z,101686.81
2023-05-08T12:44:35.404Z,101679.38
2023-05-08T12:47:06.099Z,101679.22
2023-05-08T12:49:35.798Z,101677.50
2023-05-08T12:52:06.627Z,101678.41
2023-05-08T12:54:37.259Z,101677.56
2023-05-08T12:57:12.607Z,101681.25
2023-05-08T12:59:41.456Z,101672.53
2023-05-08T13:02:17.873Z,101669.00
2023-05-08T13:04:48.434Z,101671.44
2023-05-08T13:07:16.852Z,101660.94
2023-05-08T13:10:03.711Z,101658.47
2023-05-08T13:12:32.147Z,101656.38
2023-05-08T13:15:01.007Z,101653.16
2023-05-08T13:17:29.303Z,101659.44
2023-05-08T13:19:59.197Z,101662.06
2023-05-08T13:22:27.526Z,101649.91
2023-05-08T13:24:55.782Z,101647.59
2023-05-08T13:27:24.406Z,101651.34
2023-05-08T13:29:52.723Z,101645.72
2023-05-08T13:32:21.208Z,101651.66
2023-05-08T13:34:51.979Z,101641.59
2023-05-08T13:37:23.736Z,101645.75
2023-05-08T13:39:52.025Z,101639.22
2023-05-08T13:42:20.309Z,101640.25
2023-05-08T13:44:48.653Z,101640.91
2023-05-08T13:47:16.903Z,101634.63
2023-05-08T13:49:46.996Z,101632.53
2023-05-08T13:52:15.264Z,101631.00
2023-05-08T13:54:44.902Z,101621.41
2023-05-08T13:57:13.422Z,101626.44
2023-05-08T13:59:41.790Z,101624.41
2023-05-08T14:02:10.132Z,101625.97
2023-05-08T14:04:38.582Z,101618.00
2023-05-08T14:07:06.895Z,101618.88
2023-05-08T14:09:35.694Z,101620.06
2023-05-08T14:12:05.589Z,101616.69
2023-05-08T14:14:34.577Z,101613.72
2023-05-08T14:17:03.230Z,101613.16
2023-05-08T14:19:31.583Z,101615.50
2023-05-08T14:21:59.942Z,101615.28
2023-05-08T14:24:28.291Z,101608.94
2023-05-08T14:26:56.614Z,101613.75
2023-05-08T14:29:26.309Z,101615.78
2023-05-08T14:31:54.797Z,101611.94
2023-05-08T14:34:23.451Z,101616.66
2023-05-08T14:36:51.734Z,101607.06
2023-05-08T14:39:19.995Z,101613.38
2023-05-08T14:42:05.762Z,101615.50
2023-05-08T14:44:38.695Z,101616.88
2023-05-08T14:47:07.003Z,101614.81
2023-05-08T14:49:38.620Z,101618.19
2023-05-08T14:52:07.522Z,101622.56
2023-05-08T14:54:36.061Z,101609.72
2023-05-08T14:57:04.572Z,101604.38
2023-05-08T14:59:32.899Z,101614.94
2023-05-08T15:02:02.659Z,101617.25
2023-05-08T15:04:31.193Z,101609.31
2023-05-08T15:06:59.443Z,101609.91
2023-05-08T15:09:27.806Z,101609.91
2023-05-08T15:11:56.145Z,101617.78
2023-05-08T15:14:24.521Z,101621.97
2023-05-08T15:16:52.819Z,101613.47
2023-05-08T15:19:22.543Z,101612.81
2023-05-08T15:21:50.809Z,101613.88
2023-05-08T15:24:19.108Z,101605.91
2023-05-08T15:26:47.359Z,101612.28
2023-05-08T15:29:15.618Z,101606.38
2023-05-08T15:31:43.884Z,101614.31
2023-05-08T15:34:12.537Z,101610.50
2023-05-08T15:36:42.155Z,101614.41
2023-05-08T15:39:10.585Z,101606.88
2023-05-08T15:41:41.152Z,101607.44
2023-05-08T15:44:09.932Z,101602.31
2023-05-08T15:46:38.603Z,101600.38
2023-05-08T15:49:07.202Z,101597.31
2023-05-08T15:51:35.819Z,101594.97
2023-05-08T15:54:05.844Z,101592.13
2023-05-08T15:56:35.565Z,101600.03
2023-05-08T15:59:03.809Z,101605.72
2023-05-08T16:01:32.163Z,101603.72
2023-05-08T16:04:00.411Z,101608.28
2023-05-08T16:06:28.700Z,101606.88
2023-05-08T16:08:56.916Z,101609.06
2023-05-08T16:11:26.659Z,101606.59
2023-05-08T16:13:54.864Z,101601.53
2023-05-08T16:16:23.219Z,101595.00
2023-05-08T16:18:51.516Z,101593.28
2023-05-08T16:23:47.835Z,101599.22
2023-05-08T16:26:16.622Z,101598.72
2023-05-08T16:28:46.309Z,101581.06
2023-05-08T16:31:14.594Z,101584.16
2023-05-08T16:33:43.068Z,101582.44
2023-05-08T16:36:11.731Z,101586.34
2023-05-08T16:38:40.047Z,101591.56
2023-05-08T16:41:10.191Z,101588.06
2023-05-08T16:43:38.527Z,101580.75
2023-05-08T16:46:09.194Z,101576.03
2023-05-08T16:48:37.549Z,101578.53
2023-05-08T16:51:05.828Z,101572.34
2023-05-08T16:53:34.075Z,101574.25
2023-05-08T16:56:02.390Z,101572.66
2023-05-08T16:58:30.645Z,101570.09
2023-05-08T17:00:58.997Z,101577.16
2023-05-08T17:03:28.742Z,101572.38
2023-05-08T17:05:57.051Z,101574.78
2023-05-08T17:08:25.284Z,101578.00
2023-05-08T17:10:54.534Z,101576.56
2023-05-08T17:13:22.801Z,101589.63
2023-05-08T17:15:51.230Z,101581.53
2023-05-08T17:18:19.663Z,101589.34
2023-05-08T17:20:49.603Z,101589.91
2023-05-08T17:23:17.914Z,101591.22
2023-05-08T17:25:46.201Z,101585.13
2023-05-08T17:28:14.512Z,101581.97
2023-05-08T17:30:42.777Z,101583.78
2023-05-08T17:33:11.118Z,101583.59
2023-05-08T17:35:39.439Z,101580.97
2023-05-08T17:38:09.095Z,101578.50
2023-05-08T17:40:39.034Z,101586.44
2023-05-08T17:43:08.615Z,101583.28
2023-05-08T17:45:36.940Z,101581.38
2023-05-08T17:48:05.982Z,101582.59
2023-05-08T17:50:35.647Z,101585.63
2023-05-08T17:53:03.928Z,101576.25
2023-05-08T17:55:34.711Z,101585.16
2023-05-08T17:58:03.066Z,101586.94
2023-05-08T18:00:31.339Z,101588.06
2023-05-08T18:02:59.651Z,101591.66
2023-05-08T18:05:27.984Z,101585.13
2023-05-08T18:07:56.271Z,101589.44
2023-05-08T18:10:24.962Z,101588.00
2023-05-08T18:12:54.720Z,101588.59
2023-05-08T18:15:23.073Z,101586.41
2023-05-08T18:17:51.691Z,101581.88
2023-05-08T18:20:20.911Z,101573.22
2023-05-08T18:22:49.410Z,101579.88
2023-05-08T18:25:17.961Z,101583.22
2023-05-08T18:27:48.637Z,101584.94
2023-05-08T18:30:18.445Z,101590.84
2023-05-08T18:32:46.731Z,101585.78
2023-05-08T18:35:15.342Z,101583.53
2023-05-08T18:37:43.612Z,101583.00
2023-05-08T18:40:13.607Z,101573.88
2023-05-08T18:42:42.010Z,101578.72
2023-05-08T18:45:12.250Z,101574.13
2023-05-08T18:47:41.984Z,101579.19
2023-05-08T18:50:11.973Z,101576.53
2023-05-08T18:52:40.882Z,101571.81
2023-05-08T18:55:10.179Z,101573.47
2023-05-08T18:57:38.733Z,101572.34
2023-05-08T19:00:08.968Z,101574.00
2023-05-08T19:02:37.323Z,101567.03
2023-05-08T19:05:08.362Z,101572.63
2023-05-08T19:07:37.193Z,101567.50
2023-05-08T19:10:06.633Z,101567.38
2023-05-08T19:12:34.916Z,101574.56
2023-05-08T19:15:08.680Z,101567.47
2023-05-08T19:17:37.194Z,101578.88
2023-05-08T19:20:08.608Z,101574.34
2023-05-08T19:22:36.906Z,101561.38
2023-05-08T19:25:06.022Z,101572.47
2023-05-08T19:27:34.288Z,101567.28
2023-05-08T19:30:02.644Z,101561.38
2023-05-08T19:32:30.905Z,101565.56
2023-05-08T19:34:59.440Z,101562.28
2023-05-08T19:37:29.373Z,101570.94
2023-05-08T19:39:57.672Z,101565.66
2023-05-08T19:42:26.101Z,101572.94
2023-05-08T19:44:54.373Z,101575.66
2023-05-08T19:47:22.691Z,101580.78
2023-05-08T19:49:51.264Z,101583.28
2023-05-08T19:52:20.003Z,101579.59
2023-05-08T19:54:49.617Z,101572.03
2023-05-08T19:57:17.911Z,101575.41
2023-05-08T19:59:46.192Z,101568.66
2023-05-08T20:02:14.447Z,101572.06
2023-05-08T20:05:10.501Z,101567.09
2023-05-08T20:07:31.488Z,101559.56
2023-05-08T20:10:01.257Z,101557.19
2023-05-08T20:12:29.532Z,101569.72
2023-05-08T20:14:57.766Z,101561.38
2023-05-08T20:17:26.246Z,101557.13
2023-05-08T20:19:54.761Z,101561.94
2023-05-08T20:22:23.084Z,101562.66
2023-05-08T20:24:51.287Z,101557.22
2023-05-08T20:27:20.909Z,101560.91
2023-05-08T20:29:49.106Z,101553.47
2023-05-08T20:32:19.151Z,101557.47
2023-05-08T20:34:47.463Z,101557.13
2023-05-08T20:37:16.803Z,101561.03
2023-05-08T20:39:45.302Z,101556.56
2023-05-08T20:42:13.596Z,101546.72
2023-05-08T20:44:43.273Z,101543.66
2023-05-08T20:47:11.528Z,101549.50
2023-05-08T20:49:39.826Z,101542.63
2023-05-08T20:52:08.072Z,101544.34
2023-05-08T20:54:36.330Z,101548.69
2023-05-08T20:57:04.557Z,101545.75
2023-05-08T20:59:32.825Z,101535.66
2023-05-08T21:02:02.405Z,101540.06
2023-05-08T21:04:31.079Z,101536.03
2023-05-08T21:06:59.370Z,101532.53
2023-05-08T21:09:27.604Z,101535.88
2023-05-08T21:11:55.858Z,101534.16
2023-05-08T21:14:24.113Z,101534.75
2023-05-08T21:16:54.049Z,101537.69
2023-05-08T21:19:23.977Z,101526.34
2023-05-08T21:21:52.195Z,101533.25
2023-05-08T21:24:20.489Z,101526.81
2023-05-08T21:26:48.736Z,101524.97
2023-05-08T21:29:17.066Z,101523.91
2023-05-08T21:31:45.424Z,101526.31
2023-05-08T21:34:14.891Z,101528.78
2023-05-08T21:36:44.484Z,101517.38
2023-05-08T21:39:12.716Z,101528.63
2023-05-08T21:41:43.823Z,101524.66
2023-05-08T21:44:12.918Z,101522.50
2023-05-08T21:46:41.225Z,101523.47
2023-05-08T21:49:10.133Z,101517.41
2023-05-08T21:51:38.376Z,101517.41
2023-05-08T21:54:08.015Z,101518.41
2023-05-08T21:56:36.231Z,101521.03
2023-05-08T21:59:04.475Z,101518.84
2023-05-08T22:01:33.458Z,101512.59
2023-05-08T22:04:01.884Z,101513.91
2023-05-08T22:06:30.550Z,101505.81
2023-05-08T22:08:58.978Z,101509.44
2023-05-08T22:11:28.595Z,101502.88
2023-05-08T22:13:56.815Z,101510.09
2023-05-08T22:16:25.152Z,101493.31
2023-05-08T22:18:53.419Z,101501.09
2023-05-08T22:21:21.688Z,101493.69
2023-05-08T22:23:49.949Z,101489.91
2023-05-08T22:26:18.171Z,101486.97
2023-05-08T22:28:47.762Z,101483.53
2023-05-08T22:31:16.008Z,101480.88
2023-05-08T22:33:44.244Z,101484.88
2023-05-08T22:36:12.459Z,101480.69
2023-05-08T22:38:41.523Z,101475.72
2023-05-08T22:41:10.834Z,101478.28
2023-05-08T22:43:39.171Z,101476.84
2023-05-08T22:46:08.990Z,101472.34
2023-05-08T22:48:37.595Z,101479.56
2023-05-08T22:51:06.480Z,101473.34
2023-05-08T22:53:34.720Z,101471.50
2023-05-08T22:56:02.981Z,101466.59
2023-05-08T22:58:31.342Z,101459.75
2023-05-08T23:01:00.620Z,101462.28
2023-05-08T23:03:30.485Z,101451.44
2023-05-08T23:05:58.714Z,101456.88
2023-05-08T23:08:26.950Z,101445.09
2023-05-08T23:10:55.191Z,101443.94
2023-05-08T23:13:23.472Z,101452.75
2023-05-08T23:15:51.806Z,101447.56
2023-05-08T23:18:20.037Z,101435.00
2023-05-08T23:20:49.623Z,101431.56
2023-05-08T23:23:17.833Z,101434.47
2023-05-08T23:25:46.125Z,101429.81
2023-05-08T23:28:14.341Z,101416.69
2023-05-08T23:30:42.627Z,101421.78
2023-05-08T23:33:11.009Z,101416.22
2023-05-08T23:35:39.255Z,101413.28
2023-05-08T23:38:09.035Z,101417.69
2023-05-08T23:40:37.357Z,101413.97
2023-05-08T23:43:06.234Z,101402.31
2023-05-08T23:45:34.506Z,101403.28
2023-05-08T23:48:02.799Z,101408.88
2023-05-08T23:50:31.065Z,101411.75
2023-05-08T23:52:59.400Z,101412.19
2023-05-08T23:55:28.993Z,101406.13
2023-05-08T23:57:57.903Z,101406.69
